Time;durP1;ratioP1;P1;durP2;ratioP2;P2;SDS_P1;SDS_P2;PMS_P1;PMS_P2;Temp;Humidity;BMP_temperature;BMP_pressure;BME280_temperature;BME280_humidity;BME280_pressure;Samples;Min_cycle;Max_cycle;Signal;HPM_P1;HPM_P2
2023/02/26 00:01:24;;;;;;;8.27;1.80;;;-2.00;99.90;;;;;;5073571;28;20131;-66
2023/02/26 00:03:51;;;;;;;6.90;1.30;;;-2.00;99.90;;;;;;5077911;28;20105;-67
2023/02/26 00:06:17;;;;;;;4.53;1.20;;;-2.10;99.90;;;;;;5074511;28;20082;-66
2023/02/26 00:08:43;;;;;;;3.25;1.55;;;-2.10;99.90;;;;;;5076782;28;20392;-66
2023/02/26 00:11:10;;;;;;;8.10;1.73;;;-2.20;99.90;;;;;;5075115;28;20028;-67
2023/02/26 00:13:36;;;;;;;5.22;1.52;;;-2.40;99.90;;;;;;5075349;28;20040;-65
2023/02/26 00:16:05;;;;;;;3.65;1.27;;;-2.40;99.90;;;;;;5040662;28;20930;-69
2023/02/26 00:18:31;;;;;;;7.75;1.35;;;-2.40;99.90;;;;;;5064696;28;20044;-66
2023/02/26 00:20:56;;;;;;;5.30;1.33;;;-2.40;99.90;;;;;;5060896;28;20063;-67
2023/02/26 00:23:23;;;;;;;10.90;2.10;;;-2.40;99.90;;;;;;5060417;28;20127;-67
2023/02/26 00:25:49;;;;;;;6.63;1.88;;;-2.40;99.90;;;;;;5061688;28;20036;-66
2023/02/26 00:28:15;;;;;;;6.55;1.50;;;-2.40;99.90;;;;;;5059641;28;20867;-66
2023/02/26 00:30:40;;;;;;;6.13;2.25;;;-2.40;99.90;;;;;;5060361;28;20380;-65
2023/02/26 00:33:06;;;;;;;4.00;1.50;;;-2.40;99.90;;;;;;5061486;28;20082;-65
2023/02/26 00:35:33;;;;;;;9.98;1.98;;;-2.50;99.90;;;;;;5060945;28;20081;-68
2023/02/26 00:38:05;;;;;;;6.10;1.48;;;-2.50;99.90;;;;;;5060862;28;20058;-67
2023/02/26 00:40:42;;;;;;;7.72;2.20;;;-2.40;99.90;;;;;;5062312;28;20549;-68
2023/02/26 00:43:17;;;;;;;6.63;1.80;;;-2.40;99.90;;;;;;5040899;28;20040;-68
2023/02/26 00:46:04;;;;;;;3.53;1.70;;;-2.30;99.90;;;;;;5059589;28;20037;-66
2023/02/26 00:48:51;;;;;;;6.60;2.35;;;-2.30;99.90;;;;;;5060467;28;20630;-68
2023/02/26 00:51:35;;;;;;;9.23;1.88;;;-2.30;99.90;;;;;;5059536;28;20032;-67
2023/02/26 00:54:20;;;;;;;4.90;2.17;;;-2.20;99.90;;;;;;5062603;28;20626;-66
2023/02/26 00:56:47;;;;;;;3.92;1.88;;;-2.30;99.90;;;;;;5040976;28;20068;-65
2023/02/26 00:59:13;;;;;;;8.73;2.47;;;-2.40;99.90;;;;;;5072175;28;20032;-67
2023/02/26 01:01:38;;;;;;;5.40;2.50;;;-2.30;99.90;;;;;;5063337;28;20032;-67
2023/02/26 01:04:04;;;;;;;7.22;3.00;;;-2.30;99.90;;;;;;5061141;28;20161;-68
2023/02/26 01:06:33;;;;;;;7.85;2.80;;;-2.20;99.90;;;;;;5057469;28;20049;-67
2023/02/26 01:09:15;;;;;;;3.95;2.22;;;-2.20;99.90;;;;;;5060372;28;20438;-67
2023/02/26 01:11:41;;;;;;;7.20;3.17;;;-2.20;99.90;;;;;;5058483;28;20071;-65
2023/02/26 01:14:07;;;;;;;13.60;4.35;;;-2.30;99.90;;;;;;5064001;28;20052;-66
2023/02/26 01:16:42;;;;;;;7.70;3.00;;;-2.20;99.90;;;;;;5058934;28;20040;-66
2023/02/26 01:19:18;;;;;;;10.95;3.53;;;-2.30;99.90;;;;;;5063300;28;20470;-66
2023/02/26 01:21:50;;;;;;;10.18;3.58;;;-2.40;99.90;;;;;;5059460;28;20029;-66
2023/02/26 01:24:19;;;;;;;7.03;3.28;;;-2.40;99.90;;;;;;5063047;28;20096;-65
2023/02/26 01:26:46;;;;;;;6.35;3.33;;;-2.30;99.90;;;;;;5058923;28;20068;-66
2023/02/26 01:29:12;;;;;;;16.58;4.30;;;-2.30;99.90;;;;;;5058984;28;20791;-66
2023/02/26 01:31:48;;;;;;;9.70;3.60;;;-2.40;99.90;;;;;;5056413;28;20032;-67
2023/02/26 01:34:57;;;;;;;9.73;4.78;;;-2.50;99.90;;;;;;5061012;28;20064;-66
2023/02/26 01:37:32;;;;;;;13.98;4.50;;;-2.50;99.90;;;;;;5004736;28;20256;-66
2023/02/26 01:40:07;;;;;;;9.45;4.03;;;-2.40;99.90;;;;;;5063728;28;20622;-64
2023/02/26 01:42:36;;;;;;;10.05;4.35;;;-2.30;99.90;;;;;;5063001;28;20142;-66
2023/02/26 01:45:35;;;;;;;7.50;4.10;;;-2.30;99.90;;;;;;5061277;28;20037;-67
2023/02/26 01:48:10;;;;;;;8.13;3.67;;;-2.40;99.90;;;;;;5056315;28;20460;-67
2023/02/26 01:50:37;;;;;;;11.48;3.92;;;-2.40;99.90;;;;;;5059319;28;20048;-66
2023/02/26 01:53:23;;;;;;;12.27;3.83;;;-2.50;99.90;;;;;;5059985;28;20028;-67
2023/02/26 01:55:58;;;;;;;6.93;4.55;;;-2.50;99.90;;;;;;5058998;28;20109;-66
2023/02/26 01:58:26;;;;;;;9.48;3.67;;;-2.40;99.90;;;;;;5042879;28;20056;-66
2023/02/26 02:00:52;;;;;;;13.63;4.43;;;-2.50;99.90;;;;;;5058839;28;20389;-66
2023/02/26 02:03:19;;;;;;;9.02;3.28;;;-2.60;99.90;;;;;;5056390;28;20044;-65
2023/02/26 02:05:53;;;;;;;7.78;3.88;;;-2.50;99.90;;;;;;5060150;28;21644;-64
2023/02/26 02:08:20;;;;;;;10.73;4.57;;;-2.40;99.90;;;;;;5059068;28;20051;-65
2023/02/26 02:10:49;;;;;;;9.93;4.45;;;-2.40;99.90;;;;;;5059239;28;20064;-66
2023/02/26 02:13:21;;;;;;;10.52;4.28;;;-2.40;99.90;;;;;;5058649;28;20239;-65
2023/02/26 02:16:16;;;;;;;8.85;4.07;;;-2.50;99.90;;;;;;5039342;28;20047;-66
2023/02/26 02:19:08;;;;;;;13.18;4.47;;;-2.40;99.90;;;;;;5057562;28;20036;-64
2023/02/26 02:21:45;;;;;;;9.50;4.85;;;-2.40;99.90;;;;;;5056023;28;20412;-66
2023/02/26 02:24:29;;;;;;;10.50;4.53;;;-2.50;99.90;;;;;;5063808;28;20025;-66
2023/02/26 02:27:29;;;;;;;8.05;4.80;;;-2.50;99.90;;;;;;5057632;28;20063;-66
2023/02/26 02:30:15;;;;;;;9.45;5.28;;;-2.40;99.90;;;;;;5059596;28;20047;-66
2023/02/26 02:32:52;;;;;;;;;;;-2.50;99.90;;;;;;5058588;28;20499;-66
2023/02/26 02:35:28;;;;;;;13.10;5.63;;;-2.60;99.90;;;;;;5059935;28;19928;-66
2023/02/26 02:37:57;;;;;;;;;;;-2.60;99.90;;;;;;5060360;28;20056;-67
2023/02/26 02:40:32;;;;;;;9.43;5.20;;;-2.60;99.90;;;;;;5060424;28;19924;-67
2023/02/26 02:43:02;;;;;;;12.85;5.90;;;-2.50;99.90;;;;;;5059827;28;20119;-66
2023/02/26 02:45:37;;;;;;;15.70;6.25;;;-2.60;99.90;;;;;;5058251;28;20048;-65
2023/02/26 02:48:11;;;;;;;15.23;5.78;;;-2.60;99.90;;;;;;5057051;28;20049;-65
2023/02/26 02:50:42;;;;;;;14.45;6.07;;;-2.60;99.90;;;;;;5057857;28;20040;-66
2023/02/26 02:53:23;;;;;;;17.58;5.90;;;-2.60;99.90;;;;;;5059153;28;20411;-65
2023/02/26 02:55:58;;;;;;;13.38;5.65;;;-2.60;99.90;;;;;;5059628;28;20048;-66
2023/02/26 02:58:30;;;;;;;14.48;5.63;;;-2.60;99.90;;;;;;5060693;28;20072;-67
2023/02/26 03:00:59;;;;;;;11.32;5.80;;;-2.50;99.90;;;;;;5057095;28;20463;-66
2023/02/26 03:03:35;;;;;;;12.18;5.40;;;-2.50;99.90;;;;;;5056306;28;20044;-66
2023/02/26 03:06:02;;;;;;;11.05;5.03;;;-2.60;99.90;;;;;;5056485;28;20064;-66
2023/02/26 03:08:32;;;;;;;8.73;4.82;;;-2.60;99.90;;;;;;5062136;28;20149;-66
2023/02/26 03:10:58;;;;;;;20.80;5.97;;;-2.50;99.90;;;;;;5061142;28;20051;-65
2023/02/26 03:13:25;;;;;;;13.52;5.80;;;-2.60;99.90;;;;;;5061669;28;20040;-66
2023/02/26 03:16:36;;;;;;;8.35;5.32;;;-2.60;99.90;;;;;;5060575;28;20048;-65
2023/02/26 03:19:25;;;;;;;11.75;5.05;;;-2.60;99.90;;;;;;5045034;28;20044;-67
2023/02/26 03:22:00;;;;;;;9.25;5.10;;;-2.70;99.90;;;;;;5040696;28;20090;-67
2023/02/26 03:24:33;;;;;;;14.00;5.82;;;-2.70;99.90;;;;;;5063213;28;20037;-64
2023/02/26 03:27:07;;;;;;;13.70;5.55;;;-2.70;99.90;;;;;;5062052;28;20125;-64
2023/02/26 03:29:40;;;;;;;10.20;5.28;;;-2.70;99.90;;;;;;5060699;28;20458;-67
2023/02/26 03:32:13;;;;;;;14.85;6.10;;;-2.60;99.90;;;;;;5054193;28;20116;-67
2023/02/26 03:34:48;;;;;;;11.65;4.70;;;-2.60;99.90;;;;;;5061801;28;20040;-66
2023/02/26 03:37:25;;;;;;;10.50;5.55;;;-2.50;99.90;;;;;;5059245;28;20062;-67
2023/02/26 03:39:57;;;;;;;11.55;5.90;;;-2.50;99.90;;;;;;5060268;28;20040;-65
2023/02/26 03:42:45;;;;;;;10.93;5.68;;;-2.50;99.90;;;;;;5055813;28;20049;-67
2023/02/26 03:45:32;;;;;;;12.95;5.25;;;-2.60;99.90;;;;;;5059486;28;20509;-67
2023/02/26 03:47:58;;;;;;;;;;;-2.50;99.90;;;;;;5058970;28;20037;-67
2023/02/26 03:50:34;;;;;;;17.00;5.20;;;-2.50;99.90;;;;;;5058837;28;19924;-67
2023/02/26 03:53:03;;;;;;;11.77;5.20;;;-2.60;99.90;;;;;;5060235;28;20420;-68
2023/02/26 03:56:00;;;;;;;15.55;5.60;;;-2.60;99.90;;;;;;5060610;28;20345;-67
2023/02/26 03:58:26;;;;;;;8.40;5.10;;;-2.60;99.90;;;;;;5062141;28;20037;-67
2023/02/26 04:00:58;;;;;;;11.40;4.88;;;-2.60;99.90;;;;;;5060298;28;20086;-66
2023/02/26 04:03:56;;;;;;;11.07;5.30;;;-2.70;99.90;;;;;;5062837;28;20079;-66
2023/02/26 04:06:23;;;;;;;12.63;5.10;;;-2.70;99.90;;;;;;5053185;28;20114;-66
2023/02/26 04:08:49;;;;;;;10.15;4.22;;;-2.70;99.90;;;;;;5063998;28;20044;-66
2023/02/26 04:11:17;;;;;;;9.45;4.80;;;-2.50;99.90;;;;;;5060986;28;20029;-66
2023/02/26 04:13:43;;;;;;;11.15;5.95;;;-2.60;99.90;;;;;;5062309;28;20036;-65
2023/02/26 04:16:09;;;;;;;18.88;5.18;;;-2.60;99.90;;;;;;5062060;28;20036;-66
2023/02/26 04:18:34;;;;;;;9.05;5.30;;;-2.60;99.90;;;;;;5061404;28;20033;-66
2023/02/26 04:21:01;;;;;;;13.70;5.20;;;-2.70;99.90;;;;;;5061146;28;20037;-66
2023/02/26 04:23:27;;;;;;;8.40;4.60;;;-2.70;99.90;;;;;;5065255;28;20048;-65
2023/02/26 04:25:53;;;;;;;8.02;4.50;;;-2.60;99.90;;;;;;5061601;28;20033;-66
2023/02/26 04:28:18;;;;;;;9.18;4.80;;;-2.70;99.90;;;;;;5061964;28;20087;-65
2023/02/26 04:30:44;;;;;;;12.88;4.35;;;-2.60;99.90;;;;;;5060395;28;20063;-65
2023/02/26 04:33:09;;;;;;;7.20;4.05;;;-2.60;99.90;;;;;;5061745;28;20040;-66
2023/02/26 04:35:35;;;;;;;7.28;3.90;;;-2.60;99.90;;;;;;5061881;28;20037;-66
2023/02/26 04:38:00;;;;;;;10.20;4.60;;;-2.50;99.90;;;;;;5061864;28;20040;-67
2023/02/26 04:40:26;;;;;;;15.70;4.57;;;-2.50;99.90;;;;;;5060512;28;20603;-67
2023/02/26 04:42:52;;;;;;;9.88;4.28;;;-2.60;99.90;;;;;;5061103;28;20025;-66
2023/02/26 04:45:17;;;;;;;7.38;3.83;;;-2.60;99.90;;;;;;5061310;28;20644;-66
2023/02/26 04:47:43;;;;;;;8.57;4.32;;;-2.70;99.90;;;;;;5057972;28;20504;-66
2023/02/26 04:50:09;;;;;;;6.80;3.72;;;-2.70;99.90;;;;;;5063124;28;20102;-67
2023/02/26 04:52:35;;;;;;;8.60;4.13;;;-2.70;99.90;;;;;;5062414;28;20113;-66
2023/02/26 04:55:01;;;;;;;7.15;4.40;;;-2.70;99.90;;;;;;5062747;28;20076;-65
2023/02/26 04:57:26;;;;;;;7.28;3.92;;;-2.60;99.90;;;;;;5058781;28;20041;-65
2023/02/26 04:59:52;;;;;;;15.63;4.65;;;-2.70;99.90;;;;;;5065781;28;20051;-64
2023/02/26 05:02:18;;;;;;;9.35;4.30;;;-2.70;99.90;;;;;;5040219;28;20427;-66
2023/02/26 05:04:43;;;;;;;8.38;4.25;;;-2.70;99.90;;;;;;5061439;28;20060;-66
2023/02/26 05:07:09;;;;;;;10.65;4.40;;;-2.60;99.90;;;;;;5060548;28;20059;-65
2023/02/26 05:09:35;;;;;;;10.43;4.18;;;-2.60;99.90;;;;;;5061161;28;20090;-66
2023/02/26 05:12:00;;;;;;;10.80;3.67;;;-2.50;99.90;;;;;;5060950;28;20606;-67
2023/02/26 05:14:26;;;;;;;8.00;4.25;;;-2.60;99.90;;;;;;5061800;28;20036;-66
2023/02/26 05:16:51;;;;;;;11.30;4.70;;;-2.50;99.90;;;;;;5057771;28;20794;-66
2023/02/26 05:19:17;;;;;;;14.77;4.32;;;-2.50;99.90;;;;;;5066722;28;20133;-68
2023/02/26 05:21:43;;;;;;;13.45;4.00;;;-2.50;99.90;;;;;;5058545;28;20075;-65
2023/02/26 05:24:08;;;;;;;8.80;3.70;;;-2.60;99.90;;;;;;5059318;28;20035;-66
2023/02/26 05:26:35;;;;;;;10.43;3.78;;;-2.60;99.90;;;;;;5043775;28;20124;-66
2023/02/26 05:29:01;;;;;;;10.40;3.80;;;-2.50;99.90;;;;;;5065126;28;20045;-67
2023/02/26 05:31:27;;;;;;;5.97;3.70;;;-2.70;99.90;;;;;;5061883;28;20118;-66
2023/02/26 05:33:53;;;;;;;9.02;3.83;;;-2.70;99.90;;;;;;5066149;28;20040;-66
2023/02/26 05:36:18;;;;;;;10.07;4.25;;;-2.70;99.90;;;;;;5040757;28;20041;-66
2023/02/26 05:38:44;;;;;;;8.25;3.58;;;-2.70;99.90;;;;;;5042490;28;20128;-66
2023/02/26 05:41:09;;;;;;;8.95;4.38;;;-2.70;99.90;;;;;;5060697;28;20032;-67
2023/02/26 05:43:35;;;;;;;6.90;3.65;;;-2.70;99.90;;;;;;5063617;28;20043;-67
2023/02/26 05:46:01;;;;;;;10.00;3.60;;;-2.70;99.90;;;;;;5064418;28;20457;-65
2023/02/26 05:48:27;;;;;;;7.10;4.40;;;-2.60;99.90;;;;;;5044891;28;20115;-66
2023/02/26 05:50:53;;;;;;;8.23;3.90;;;-2.70;99.90;;;;;;5063217;28;20036;-67
2023/02/26 05:53:19;;;;;;;7.47;4.32;;;-2.70;99.90;;;;;;5059011;28;20082;-66
2023/02/26 05:55:44;;;;;;;8.27;3.80;;;-2.70;99.90;;;;;;5058198;28;20167;-65
2023/02/26 05:58:10;;;;;;;7.35;3.50;;;-2.70;99.90;;;;;;5062436;28;20543;-67
2023/02/26 06:00:36;;;;;;;7.85;3.85;;;-2.80;99.90;;;;;;5060126;28;20408;-66
2023/02/26 06:03:02;;;;;;;7.72;3.60;;;-2.80;99.90;;;;;;5060911;28;20040;-65
2023/02/26 06:05:27;;;;;;;5.55;3.13;;;-2.80;99.90;;;;;;5058773;28;20032;-65
2023/02/26 06:07:53;;;;;;;6.20;3.30;;;-2.80;99.90;;;;;;5059115;28;20123;-65
2023/02/26 06:10:19;;;;;;;14.40;3.47;;;-2.80;99.90;;;;;;5062478;28;20044;-65
2023/02/26 06:12:44;;;;;;;10.95;3.70;;;-2.70;99.90;;;;;;5063980;28;20155;-66
2023/02/26 06:15:10;;;;;;;9.23;4.55;;;-2.70;99.90;;;;;;5060280;28;20032;-64
2023/02/26 06:17:37;;;;;;;7.88;3.75;;;-2.70;99.90;;;;;;5061443;28;20106;-65
2023/02/26 06:20:04;;;;;;;15.07;4.30;;;-2.70;99.90;;;;;;5063575;28;20042;-68
2023/02/26 06:22:29;;;;;;;6.32;3.80;;;-2.70;99.90;;;;;;5043369;28;20047;-65
2023/02/26 06:24:55;;;;;;;12.90;4.18;;;-2.70;99.90;;;;;;5060914;28;20040;-66
2023/02/26 06:27:22;;;;;;;8.60;3.90;;;-2.70;99.90;;;;;;5059169;28;20048;-64
2023/02/26 06:29:48;;;;;;;9.68;4.15;;;-2.80;99.90;;;;;;5060971;28;20474;-69
2023/02/26 06:32:13;;;;;;;15.93;4.72;;;-2.90;99.90;;;;;;5057041;28;20036;-66
2023/02/26 06:34:39;;;;;;;15.63;4.40;;;-2.80;99.90;;;;;;5059403;28;20497;-64
2023/02/26 06:37:05;;;;;;;11.30;4.75;;;-2.80;99.90;;;;;;5060393;28;20036;-64
2023/02/26 06:39:30;;;;;;;9.27;4.32;;;-2.90;99.90;;;;;;5058104;28;20101;-64
2023/02/26 06:41:56;;;;;;;8.38;3.92;;;-2.80;99.90;;;;;;5043016;28;20637;-65
2023/02/26 06:44:21;;;;;;;9.18;4.43;;;-2.80;99.90;;;;;;5058920;28;21425;-66
2023/02/26 06:46:47;;;;;;;13.07;4.50;;;-2.80;99.90;;;;;;5058786;28;20032;-65
2023/02/26 06:49:13;;;;;;;10.45;4.70;;;-2.70;99.90;;;;;;5061781;28;20055;-65
2023/02/26 06:51:39;;;;;;;12.07;4.45;;;-2.70;99.90;;;;;;5058634;28;20028;-66
2023/02/26 06:54:04;;;;;;;8.52;4.20;;;-2.70;99.90;;;;;;5060847;28;20551;-66
2023/02/26 06:56:30;;;;;;;10.18;4.75;;;-2.70;99.90;;;;;;5058445;28;20049;-65
2023/02/26 06:58:55;;;;;;;19.45;4.50;;;-2.70;99.90;;;;;;5061327;28;20032;-65
2023/02/26 07:01:21;;;;;;;25.85;5.03;;;-2.60;99.90;;;;;;5055869;28;20043;-68
2023/02/26 07:03:47;;;;;;;9.48;4.00;;;-2.70;99.90;;;;;;5058531;28;20036;-66
2023/02/26 07:06:13;;;;;;;8.80;4.00;;;-2.70;99.90;;;;;;5058964;28;20629;-66
2023/02/26 07:08:38;;;;;;;14.32;4.05;;;-2.70;99.90;;;;;;5061257;28;20063;-66
2023/02/26 07:11:04;;;;;;;5.72;3.72;;;-2.60;99.90;;;;;;5061189;28;20036;-67
2023/02/26 07:13:30;;;;;;;9.70;4.35;;;-2.50;99.90;;;;;;5058107;28;20052;-65
2023/02/26 07:15:56;;;;;;;8.55;4.05;;;-2.60;99.90;;;;;;5057689;28;20056;-66
2023/02/26 07:18:22;;;;;;;7.70;3.75;;;-2.60;99.90;;;;;;5067567;28;20052;-65
2023/02/26 07:20:51;;;;;;;10.85;4.63;;;-2.60;99.90;;;;;;5069903;28;20034;-65
2023/02/26 07:23:16;;;;;;;8.20;3.67;;;-2.60;99.90;;;;;;5059496;28;20131;-66
2023/02/26 07:25:42;;;;;;;9.88;4.40;;;-2.50;99.90;;;;;;5059863;28;20139;-66
2023/02/26 07:28:07;;;;;;;9.68;3.75;;;-2.60;99.90;;;;;;5063010;28;20045;-64
2023/02/26 07:30:33;;;;;;;6.00;3.30;;;-2.70;99.90;;;;;;5048617;28;20056;-63
2023/02/26 07:32:59;;;;;;;9.43;3.30;;;-2.70;99.90;;;;;;5059533;28;20037;-68
2023/02/26 07:35:25;;;;;;;15.40;3.65;;;-2.60;99.90;;;;;;5060551;28;20046;-65
2023/02/26 07:37:51;;;;;;;7.07;3.78;;;-2.50;99.90;;;;;;5063875;28;20036;-64
2023/02/26 07:40:17;;;;;;;7.88;4.05;;;-2.40;99.90;;;;;;5063811;28;20036;-66
2023/02/26 07:42:43;;;;;;;6.50;3.30;;;-2.40;99.90;;;;;;5064633;28;20950;-65
2023/02/26 07:45:09;;;;;;;7.72;3.65;;;-2.40;99.90;;;;;;5063359;28;20044;-65
2023/02/26 07:47:38;;;;;;;5.65;3.30;;;-2.40;99.90;;;;;;5063360;28;20531;-66
2023/02/26 07:50:04;;;;;;;11.20;3.47;;;-2.40;99.90;;;;;;5064771;28;20037;-65
2023/02/26 07:52:29;;;;;;;8.27;3.08;;;-2.40;99.90;;;;;;5059697;28;20076;-65
2023/02/26 07:54:55;;;;;;;9.25;3.58;;;-2.30;99.90;;;;;;5062698;28;20064;-65
2023/02/26 07:57:21;;;;;;;5.43;3.13;;;-2.20;99.90;;;;;;5060632;28;20048;-66
2023/02/26 07:59:46;;;;;;;11.65;3.45;;;-2.30;99.90;;;;;;5041241;28;20075;-67
2023/02/26 08:02:12;;;;;;;10.40;3.20;;;-2.30;99.90;;;;;;5058089;28;20438;-64
2023/02/26 08:04:39;;;;;;;9.25;3.55;;;-2.20;99.90;;;;;;5059376;28;20056;-64
2023/02/26 08:07:04;;;;;;;6.85;3.40;;;-2.10;99.90;;;;;;5059428;28;20028;-63
2023/02/26 08:09:30;;;;;;;9.00;3.20;;;-2.00;99.90;;;;;;5060240;28;20079;-64
2023/02/26 08:11:56;;;;;;;7.72;2.63;;;-2.00;99.90;;;;;;5059346;28;20140;-64
2023/02/26 08:14:22;;;;;;;11.52;3.45;;;-2.00;99.90;;;;;;5061848;28;20037;-65
2023/02/26 08:16:48;;;;;;;10.57;3.08;;;-2.00;99.90;;;;;;5062895;28;20090;-65
2023/02/26 08:19:14;;;;;;;7.05;2.85;;;-2.10;99.90;;;;;;5072188;28;20036;-65
2023/02/26 08:21:39;;;;;;;5.57;3.10;;;-2.10;99.90;;;;;;5063112;28;20045;-66
2023/02/26 08:24:05;;;;;;;6.50;2.88;;;-2.20;99.90;;;;;;5069569;28;20050;-65
2023/02/26 08:26:35;;;;;;;15.20;4.07;;;-2.20;99.90;;;;;;5067845;28;20040;-70
2023/02/26 08:29:00;;;;;;;6.45;3.00;;;-2.20;99.90;;;;;;5063228;28;20044;-64
2023/02/26 08:31:27;;;;;;;10.70;3.17;;;-2.20;99.90;;;;;;5058275;28;20062;-63
2023/02/26 08:33:52;;;;;;;11.77;3.00;;;-2.20;99.90;;;;;;5061353;28;20068;-65
2023/02/26 08:36:20;;;;;;;4.75;2.72;;;-2.10;99.90;;;;;;5061869;28;20463;-64
2023/02/26 08:38:46;;;;;;;12.18;2.83;;;-2.00;99.90;;;;;;5062768;28;20507;-63
2023/02/26 08:41:12;;;;;;;9.27;2.88;;;-2.10;99.90;;;;;;5058677;28;20040;-65
2023/02/26 08:43:38;;;;;;;8.57;2.90;;;-2.20;99.90;;;;;;5062425;28;20032;-65
2023/02/26 08:46:05;;;;;;;9.50;3.15;;;-2.10;99.90;;;;;;5059924;28;20047;-64
2023/02/26 08:48:30;;;;;;;5.65;2.58;;;-2.10;99.90;;;;;;5063499;28;20048;-67
2023/02/26 08:50:56;;;;;;;10.93;3.05;;;-2.10;99.90;;;;;;5062024;28;20052;-69
2023/02/26 08:53:22;;;;;;;10.68;3.30;;;-1.90;99.90;;;;;;5059725;28;20047;-65
2023/02/26 08:55:52;;;;;;;9.07;2.85;;;-1.80;99.90;;;;;;5061248;28;20040;-66
2023/02/26 08:58:19;;;;;;;9.95;2.80;;;-1.80;99.90;;;;;;5062410;28;20401;-66
2023/02/26 09:00:45;;;;;;;9.45;2.42;;;-1.80;99.90;;;;;;5059849;28;20846;-66
2023/02/26 09:03:11;;;;;;;10.25;2.28;;;-1.80;99.90;;;;;;5061487;28;20078;-63
2023/02/26 09:05:37;;;;;;;11.02;2.75;;;-1.70;99.90;;;;;;5060323;28;20028;-64
2023/02/26 09:08:03;;;;;;;7.85;1.88;;;-1.50;99.90;;;;;;5060228;28;20045;-65
2023/02/26 09:10:29;;;;;;;3.83;1.90;;;-1.40;99.90;;;;;;5069987;28;20036;-66
2023/02/26 09:12:55;;;;;;;4.75;1.90;;;-1.40;99.90;;;;;;5062072;28;20025;-66
2023/02/26 09:15:20;;;;;;;4.63;1.90;;;-1.40;99.90;;;;;;5062096;28;20032;-64
2023/02/26 09:17:46;;;;;;;5.95;1.98;;;-1.30;99.90;;;;;;5060956;28;20568;-63
2023/02/26 09:20:13;;;;;;;4.63;1.60;;;-1.30;99.90;;;;;;5059153;28;20040;-65
2023/02/26 09:22:39;;;;;;;5.35;1.73;;;-1.30;99.90;;;;;;5061169;28;20046;-69
2023/02/26 09:25:05;;;;;;;6.38;2.85;;;-1.20;99.90;;;;;;5061038;28;20036;-62
2023/02/26 09:27:33;;;;;;;2.88;1.23;;;-1.30;99.90;;;;;;5060997;28;20051;-61
2023/02/26 09:29:58;;;;;;;3.22;1.52;;;-1.30;99.90;;;;;;5062201;28;20036;-65
2023/02/26 09:32:25;;;;;;;5.00;1.60;;;-1.20;99.90;;;;;;5057463;28;20066;-66
2023/02/26 09:34:51;;;;;;;5.43;1.70;;;-1.10;99.90;;;;;;5061505;28;20068;-64
2023/02/26 09:37:17;;;;;;;4.30;1.77;;;-1.10;99.90;;;;;;5043334;28;20821;-62
2023/02/26 09:39:43;;;;;;;6.03;1.42;;;-0.90;99.90;;;;;;5062284;28;20041;-63
2023/02/26 09:42:41;;;;;;;3.20;1.40;;;-1.00;99.90;;;;;;5064886;28;20113;-64
2023/02/26 09:45:18;;;;;;;3.20;1.50;;;-1.00;99.90;;;;;;5058104;28;20588;-66
2023/02/26 09:47:50;;;;;;;2.88;1.48;;;-0.90;99.90;;;;;;5057188;28;20032;-65
2023/02/26 09:50:22;;;;;;;5.55;1.20;;;-1.10;99.90;;;;;;5060790;28;20480;-65
2023/02/26 09:53:04;;;;;;;3.97;1.20;;;-0.80;99.90;;;;;;5063558;28;20031;-68
2023/02/26 09:55:52;;;;;;;5.10;0.98;;;-0.80;99.90;;;;;;5059579;28;20066;-67
2023/02/26 09:58:35;;;;;;;3.83;1.00;;;-0.80;99.90;;;;;;5059435;28;20044;-65
2023/02/26 10:01:30;;;;;;;6.60;1.15;;;-0.40;99.90;;;;;;5057578;28;20475;-65
2023/02/26 10:04:20;;;;;;;2.50;1.00;;;-0.40;99.90;;;;;;5057625;28;20795;-64
2023/02/26 10:07:15;;;;;;;3.83;1.15;;;-0.30;99.90;;;;;;5058610;28;20034;-64
2023/02/26 10:09:52;;;;;;;7.53;0.80;;;-0.40;99.90;;;;;;5059701;28;20508;-66
2023/02/26 10:12:24;;;;;;;2.78;1.10;;;-0.30;99.90;;;;;;5058200;28;20028;-64
2023/02/26 10:15:09;;;;;;;5.60;1.27;;;-0.10;99.90;;;;;;5060504;28;20047;-64
2023/02/26 10:17:41;;;;;;;3.65;1.20;;;-0.10;99.90;;;;;;5058971;28;20401;-63
2023/02/26 10:20:16;;;;;;;4.28;1.20;;;-0.10;99.90;;;;;;5044415;28;20052;-64
2023/02/26 10:22:52;;;;;;;2.75;1.13;;;-0.20;99.90;;;;;;5058968;28;20059;-63
2023/02/26 10:25:24;;;;;;;3.50;1.25;;;-0.20;99.90;;;;;;5073458;28;20070;-65
2023/02/26 10:28:00;;;;;;;1.77;0.85;;;-0.40;99.90;;;;;;5060110;28;20655;-65
2023/02/26 10:30:49;;;;;;;;;;;-0.30;99.90;;;;;;5060095;28;20048;-60
2023/02/26 10:33:32;;;;;;;5.28;0.80;;;-0.40;99.90;;;;;;5059613;28;20315;-62
2023/02/26 10:36:06;;;;;;;3.75;1.23;;;-0.20;99.90;;;;;;5059745;28;20128;-66
2023/02/26 10:38:32;;;;;;;3.83;0.80;;;-0.30;99.90;;;;;;5056597;28;20618;-64
2023/02/26 10:41:11;;;;;;;4.18;0.90;;;-0.30;99.90;;;;;;5060664;28;20045;-64
2023/02/26 10:43:54;;;;;;;2.30;0.85;;;-0.30;99.90;;;;;;5060813;28;20508;-66
2023/02/26 10:46:44;;;;;;;4.93;1.35;;;-0.50;99.90;;;;;;5040472;28;20750;-64
2023/02/26 10:49:19;;;;;;;1.67;0.98;;;-0.10;99.90;;;;;;5066767;28;20090;-69
2023/02/26 10:51:45;;;;;;;2.00;0.88;;;0.30;99.90;;;;;;5061566;28;20040;-63
2023/02/26 10:54:33;;;;;;;1.88;1.00;;;0.30;99.90;;;;;;5060834;28;20068;-66
2023/02/26 10:56:58;;;;;;;3.72;0.75;;;0.50;99.90;;;;;;5058721;28;20040;-64
2023/02/26 10:59:25;;;;;;;2.67;1.00;;;0.50;99.90;;;;;;5063123;28;20036;-64
2023/02/26 11:01:52;;;;;;;3.90;0.82;;;0.40;99.90;;;;;;5057057;28;20151;-64
2023/02/26 11:04:22;;;;;;;3.50;1.00;;;0.30;99.90;;;;;;5061028;28;20040;-63
2023/02/26 11:06:57;;;;;;;4.55;1.05;;;0.00;99.90;;;;;;5058943;28;20115;-64
2023/02/26 11:09:31;;;;;;;2.72;1.00;;;0.00;99.90;;;;;;5059869;28;20082;-64
2023/02/26 11:12:17;;;;;;;5.03;1.23;;;-0.10;99.90;;;;;;5056615;28;20037;-65
2023/02/26 11:14:45;;;;;;;1.70;1.33;;;-0.20;99.90;;;;;;5054812;28;20125;-64
2023/02/26 11:17:28;;;;;;;1.73;0.70;;;-0.30;99.90;;;;;;5052558;28;20056;-65
2023/02/26 11:20:04;;;;;;;1.13;0.70;;;-0.10;99.90;;;;;;5060843;28;20059;-66
2023/02/26 11:22:33;;;;;;;1.95;0.80;;;0.20;99.90;;;;;;5056467;28;20048;-65
2023/02/26 11:24:59;;;;;;;3.03;0.63;;;0.30;99.90;;;;;;5060941;28;20446;-66
2023/02/26 11:27:36;;;;;;;1.58;0.90;;;0.40;99.90;;;;;;5061220;28;20032;-66
2023/02/26 11:30:14;;;;;;;6.65;0.80;;;0.80;99.90;;;;;;5059150;28;20048;-65
2023/02/26 11:32:40;;;;;;;4.13;0.70;;;0.80;99.90;;;;;;5057195;28;20527;-69
2023/02/26 11:35:07;;;;;;;4.13;0.90;;;0.80;99.90;;;;;;5060398;28;20098;-65
2023/02/26 11:37:37;;;;;;;4.47;0.80;;;0.70;99.90;;;;;;5059461;28;20127;-63
2023/02/26 11:40:27;;;;;;;4.10;1.02;;;0.60;99.90;;;;;;5061167;28;20035;-67
2023/02/26 11:42:57;;;;;;;6.13;0.82;;;0.30;99.90;;;;;;5059520;28;20040;-67
2023/02/26 11:45:23;;;;;;;1.38;0.82;;;0.40;99.90;;;;;;5057581;28;20212;-62
2023/02/26 11:48:01;;;;;;;4.35;0.93;;;0.30;99.90;;;;;;5057271;28;20041;-64
2023/02/26 11:50:28;;;;;;;3.55;1.65;;;0.30;99.90;;;;;;5057088;28;20053;-63
2023/02/26 11:53:06;;;;;;;2.20;0.80;;;0.10;99.90;;;;;;5058144;28;20032;-65
2023/02/26 11:55:37;;;;;;;4.15;0.70;;;0.30;99.90;;;;;;5058475;28;20106;-65
2023/02/26 11:58:13;;;;;;;6.45;0.90;;;0.50;99.90;;;;;;5058978;28;20041;-65
2023/02/26 12:00:39;;;;;;;;;;;0.50;99.50;;;;;;5058132;28;20802;-63
2023/02/26 12:03:16;;;;;;;3.03;0.80;;;0.50;99.70;;;;;;5059582;28;20419;-64
2023/02/26 12:05:42;;;;;;;3.85;1.10;;;0.70;99.60;;;;;;5057779;28;20060;-65
2023/02/26 12:08:39;;;;;;;4.03;1.27;;;0.90;99.30;;;;;;5056829;28;20117;-67
2023/02/26 12:11:28;;;;;;;6.40;0.93;;;0.70;99.80;;;;;;5057053;28;20619;-63
2023/02/26 12:14:18;;;;;;;6.00;1.52;;;1.00;99.90;;;;;;5061622;28;20029;-63
2023/02/26 12:16:49;;;;;;;1.67;0.90;;;0.90;99.90;;;;;;5067384;28;20032;-63
2023/02/26 12:19:27;;;;;;;5.57;0.77;;;1.00;99.90;;;;;;5066706;28;20100;-64
2023/02/26 12:22:18;;;;;;;4.47;1.00;;;1.00;99.90;;;;;;5062299;28;20044;-66
2023/02/26 12:24:56;;;;;;;3.28;0.88;;;1.00;99.90;;;;;;5062798;28;20802;-65
2023/02/26 12:27:39;;;;;;;8.35;1.10;;;1.10;99.90;;;;;;5059495;28;20032;-66
2023/02/26 12:30:32;;;;;;;6.78;0.85;;;0.80;99.90;;;;;;5060634;28;20800;-66
2023/02/26 12:33:26;;;;;;;3.58;1.45;;;0.70;99.90;;;;;;5067196;28;20047;-63
2023/02/26 12:36:06;;;;;;;3.85;1.17;;;0.40;99.90;;;;;;5064081;28;20036;-64
2023/02/26 12:38:45;;;;;;;1.67;0.63;;;0.70;99.90;;;;;;5064959;28;20082;-63
2023/02/26 12:41:42;;;;;;;2.42;0.73;;;0.90;99.90;;;;;;5062265;28;20868;-63
2023/02/26 12:44:41;;;;;;;4.43;0.80;;;1.30;99.90;;;;;;5066421;28;20044;-64
2023/02/26 12:47:37;;;;;;;3.20;0.80;;;1.20;99.00;;;;;;5049074;28;20037;-65
2023/02/26 12:50:24;;;;;;;1.73;0.50;;;1.40;99.90;;;;;;5068022;28;20044;-65
2023/02/26 12:53:32;;;;;;;0.70;0.38;;;1.40;99.80;;;;;;5065527;28;20045;-63
2023/02/26 12:56:26;;;;;;;6.25;0.73;;;1.20;99.40;;;;;;5054778;28;20136;-65
2023/02/26 12:59:34;;;;;;;1.35;0.60;;;0.90;98.90;;;;;;5061766;28;20043;-63
2023/02/26 13:02:14;;;;;;;1.15;0.60;;;1.00;99.70;;;;;;5059733;28;20040;-65
2023/02/26 13:05:08;;;;;;;2.92;0.57;;;0.90;98.20;;;;;;5060854;28;20040;-63
2023/02/26 13:07:57;;;;;;;2.47;0.70;;;0.90;99.40;;;;;;5060578;28;20045;-65
2023/02/26 13:10:31;;;;;;;2.92;0.73;;;1.00;97.40;;;;;;5060884;28;20079;-64
2023/02/26 13:13:22;;;;;;;2.47;0.40;;;1.10;97.10;;;;;;5042678;28;20036;-64